sensor_id;sensor_type;location;lat;lon;timestamp;pressure;altitude;pressure_sealevel;temperature;humidity
73518;BME280;61766;60.318;25.044;2023-04-27T00:01:16;100385.56;;;12.08;41.09
73518;BME280;61766;60.318;25.044;2023-04-27T00:03:42;100389.43;;;11.73;41.09
73518;BME280;61766;60.318;25.044;2023-04-27T00:06:07;100394.47;;;12.10;40.56
73518;BME280;61766;60.318;25.044;2023-04-27T00:08:32;100404.95;;;11.55;41.14
73518;BME280;61766;60.318;25.044;2023-04-27T00:10:57;100410.25;;;11.75;41.42
73518;BME280;61766;60.318;25.044;2023-04-27T00:13:22;100412.26;;;10.87;42.47
73518;BME280;61766;60.318;25.044;2023-04-27T00:15:47;100416.67;;;10.94;42.56
73518;BME280;61766;60.318;25.044;2023-04-27T00:18:12;100415.08;;;10.48;43.43
73518;BME280;61766;60.318;25.044;2023-04-27T00:20:37;100419.88;;;10.75;43.25
73518;BME280;61766;60.318;25.044;2023-04-27T00:23:02;100420.28;;;10.66;42.85
73518;BME280;61766;60.318;25.044;2023-04-27T00:25:27;100416.94;;;10.30;43.35
73518;BME280;61766;60.318;25.044;2023-04-27T00:27:52;100415.84;;;10.66;43.97
73518;BME280;61766;60.318;25.044;2023-04-27T00:30:17;100418.08;;;11.03;42.94
73518;BME280;61766;60.318;25.044;2023-04-27T00:32:42;100418.20;;;10.62;42.94
73518;BME280;61766;60.318;25.044;2023-04-27T00:35:08;100411.22;;;10.98;42.88
73518;BME280;61766;60.318;25.044;2023-04-27T00:37:32;100413.49;;;10.99;42.19
73518;BME280;61766;60.318;25.044;2023-04-27T00:39:58;100413.34;;;11.29;42.00
73518;BME280;61766;60.318;25.044;2023-04-27T00:42:23;100410.78;;;11.18;42.14
73518;BME280;61766;60.318;25.044;2023-04-27T00:44:48;100410.28;;;11.33;41.75
73518;BME280;61766;60.318;25.044;2023-04-27T00:47:14;100407.11;;;11.33;41.88
73518;BME280;61766;60.318;25.044;2023-04-27T00:49:38;100402.38;;;11.26;41.70
73518;BME280;61766;60.318;25.044;2023-04-27T00:52:03;100399.29;;;11.12;41.46
73518;BME280;61766;60.318;25.044;2023-04-27T00:54:28;100400.65;;;11.47;41.31
73518;BME280;61766;60.318;25.044;2023-04-27T00:56:53;100405.59;;;11.43;41.62
73518;BME280;61766;60.318;25.044;2023-04-27T00:59:19;100408.44;;;11.19;41.99
73518;BME280;61766;60.318;25.044;2023-04-27T01:01:43;100403.43;;;11.29;42.22
73518;BME280;61766;60.318;25.044;2023-04-27T01:04:08;100400.52;;;11.35;42.15
73518;BME280;61766;60.318;25.044;2023-04-27T01:06:33;100403.51;;;11.14;42.15
73518;BME280;61766;60.318;25.044;2023-04-27T01:08:58;100402.72;;;10.95;42.66
73518;BME280;61766;60.318;25.044;2023-04-27T01:11:24;100398.69;;;10.87;42.93
73518;BME280;61766;60.318;25.044;2023-04-27T01:13:49;100405.64;;;11.09;42.71
73518;BME280;61766;60.318;25.044;2023-04-27T01:16:16;100412.21;;;11.23;41.97
73518;BME280;61766;60.318;25.044;2023-04-27T01:18:39;100409.98;;;10.99;42.45
73518;BME280;61766;60.318;25.044;2023-04-27T01:21:04;100409.69;;;10.75;42.47
73518;BME280;61766;60.318;25.044;2023-04-27T01:23:29;100412.53;;;10.89;42.51
73518;BME280;61766;60.318;25.044;2023-04-27T01:25:54;100427.22;;;11.00;41.90
73518;BME280;61766;60.318;25.044;2023-04-27T01:28:19;100426.69;;;10.90;42.32
73518;BME280;61766;60.318;25.044;2023-04-27T01:30:44;100425.98;;;10.57;42.96
73518;BME280;61766;60.318;25.044;2023-04-27T01:33:09;100425.72;;;10.88;42.77
73518;BME280;61766;60.318;25.044;2023-04-27T01:35:34;100425.58;;;11.36;42.29
73518;BME280;61766;60.318;25.044;2023-04-27T01:37:59;100414.74;;;11.28;42.13
73518;BME280;61766;60.318;25.044;2023-04-27T01:40:24;100409.41;;;11.33;41.94
73518;BME280;61766;60.318;25.044;2023-04-27T01:42:49;100414.68;;;11.45;41.80
73518;BME280;61766;60.318;25.044;2023-04-27T01:45:15;100420.36;;;11.29;41.62
73518;BME280;61766;60.318;25.044;2023-04-27T01:47:40;100423.98;;;11.32;41.41
73518;BME280;61766;60.318;25.044;2023-04-27T01:50:05;100421.90;;;11.36;41.44
73518;BME280;61766;60.318;25.044;2023-04-27T01:52:30;100413.23;;;11.13;42.03
73518;BME280;61766;60.318;25.044;2023-04-27T01:54:55;100408.01;;;11.27;42.20
73518;BME280;61766;60.318;25.044;2023-04-27T01:57:20;100414.51;;;11.36;42.06
73518;BME280;61766;60.318;25.044;2023-04-27T01:59:45;100424.65;;;11.47;41.80
73518;BME280;61766;60.318;25.044;2023-04-27T02:02:10;100426.31;;;11.14;42.01
73518;BME280;61766;60.318;25.044;2023-04-27T02:04:35;100430.62;;;11.35;41.71
73518;BME280;61766;60.318;25.044;2023-04-27T02:07:00;100430.35;;;11.39;41.35
73518;BME280;61766;60.318;25.044;2023-04-27T02:09:25;100432.51;;;11.36;40.94
73518;BME280;61766;60.318;25.044;2023-04-27T02:11:50;100432.24;;;11.64;40.78
73518;BME280;61766;60.318;25.044;2023-04-27T02:14:15;100435.63;;;10.83;42.21
73518;BME280;61766;60.318;25.044;2023-04-27T02:16:41;100433.46;;;11.11;42.03
73518;BME280;61766;60.318;25.044;2023-04-27T02:19:06;100436.18;;;10.59;42.65
73518;BME280;61766;60.318;25.044;2023-04-27T02:21:31;100436.10;;;10.30;44.00
73518;BME280;61766;60.318;25.044;2023-04-27T02:23:56;100437.98;;;10.20;44.05
73518;BME280;61766;60.318;25.044;2023-04-27T02:26:21;100441.50;;;10.31;45.05
73518;BME280;61766;60.318;25.044;2023-04-27T02:28:46;100446.87;;;9.84;46.18
73518;BME280;61766;60.318;25.044;2023-04-27T02:31:12;100450.09;;;10.17;45.72
73518;BME280;61766;60.318;25.044;2023-04-27T02:33:36;100456.11;;;9.55;46.24
73518;BME280;61766;60.318;25.044;2023-04-27T02:36:01;100458.56;;;10.10;45.39
73518;BME280;61766;60.318;25.044;2023-04-27T02:38:28;100465.44;;;10.40;44.34
73518;BME280;61766;60.318;25.044;2023-04-27T02:40:52;100467.40;;;10.74;43.82
73518;BME280;61766;60.318;25.044;2023-04-27T02:43:16;100466.13;;;10.83;43.54
73518;BME280;61766;60.318;25.044;2023-04-27T02:45:42;100463.59;;;11.13;43.08
73518;BME280;61766;60.318;25.044;2023-04-27T02:48:07;100465.88;;;10.74;43.48
73518;BME280;61766;60.318;25.044;2023-04-27T02:50:32;100461.89;;;10.98;43.75
73518;BME280;61766;60.318;25.044;2023-04-27T02:52:57;100463.00;;;10.55;43.74
73518;BME280;61766;60.318;25.044;2023-04-27T02:55:22;100466.53;;;10.66;43.57
73518;BME280;61766;60.318;25.044;2023-04-27T02:57:47;100466.47;;;11.27;43.33
73518;BME280;61766;60.318;25.044;2023-04-27T03:00:13;100472.52;;;10.87;43.48
73518;BME280;61766;60.318;25.044;2023-04-27T03:02:37;100470.98;;;10.46;44.23
73518;BME280;61766;60.318;25.044;2023-04-27T03:05:03;100467.22;;;10.12;45.22
73518;BME280;61766;60.318;25.044;2023-04-27T03:07:27;100470.01;;;10.17;45.42
73518;BME280;61766;60.318;25.044;2023-04-27T03:09:53;100473.89;;;10.25;45.19
73518;BME280;61766;60.318;25.044;2023-04-27T03:12:18;100472.24;;;10.51;44.58
73518;BME280;61766;60.318;25.044;2023-04-27T03:14:43;100477.80;;;10.35;45.13
73518;BME280;61766;60.318;25.044;2023-04-27T03:17:08;100475.04;;;10.35;44.65
73518;BME280;61766;60.318;25.044;2023-04-27T03:19:33;100469.31;;;10.03;45.50
73518;BME280;61766;60.318;25.044;2023-04-27T03:21:58;100468.72;;;10.26;45.41
73518;BME280;61766;60.318;25.044;2023-04-27T03:24:23;100481.85;;;10.54;44.95
73518;BME280;61766;60.318;25.044;2023-04-27T03:26:48;100489.26;;;10.22;45.18
73518;BME280;61766;60.318;25.044;2023-04-27T03:29:13;100494.34;;;9.98;44.91
73518;BME280;61766;60.318;25.044;2023-04-27T03:31:38;100493.67;;;10.33;45.25
73518;BME280;61766;60.318;25.044;2023-04-27T03:34:04;100492.45;;;10.50;45.16
73518;BME280;61766;60.318;25.044;2023-04-27T03:36:29;100499.38;;;10.20;45.31
73518;BME280;61766;60.318;25.044;2023-04-27T03:38:54;100497.32;;;9.76;47.06
73518;BME280;61766;60.318;25.044;2023-04-27T03:41:19;100498.11;;;10.16;46.51
73518;BME280;61766;60.318;25.044;2023-04-27T03:43:44;100504.01;;;10.37;46.05
73518;BME280;61766;60.318;25.044;2023-04-27T03:46:09;100505.56;;;10.02;45.94
73518;BME280;61766;60.318;25.044;2023-04-27T03:48:34;100512.13;;;9.91;45.91
73518;BME280;61766;60.318;25.044;2023-04-27T03:50:59;100513.25;;;9.87;46.35
73518;BME280;61766;60.318;25.044;2023-04-27T03:53:24;100512.81;;;9.52;46.62
73518;BME280;61766;60.318;25.044;2023-04-27T03:55:50;100515.12;;;9.80;47.04
73518;BME280;61766;60.318;25.044;2023-04-27T03:58:15;100513.31;;;9.75;46.47
73518;BME280;61766;60.318;25.044;2023-04-27T04:00:40;100513.61;;;9.73;47.46
73518;BME280;61766;60.318;25.044;2023-04-27T04:03:05;100516.78;;;8.96;48.16
73518;BME280;61766;60.318;25.044;2023-04-27T04:05:30;100513.76;;;9.79;46.96
73518;BME280;61766;60.318;25.044;2023-04-27T04:07:55;100516.09;;;10.24;45.68
73518;BME280;61766;60.318;25.044;2023-04-27T04:10:20;100514.67;;;9.72;46.22
73518;BME280;61766;60.318;25.044;2023-04-27T04:12:45;100518.26;;;9.84;46.38
73518;BME280;61766;60.318;25.044;2023-04-27T04:15:10;100520.54;;;10.19;45.75
73518;BME280;61766;60.318;25.044;2023-04-27T04:17:36;100519.03;;;9.73;46.65
73518;BME280;61766;60.318;25.044;2023-04-27T04:20:01;100517.85;;;9.97;46.38
73518;BME280;61766;60.318;25.044;2023-04-27T04:22:26;100518.47;;;10.54;45.59
73518;BME280;61766;60.318;25.044;2023-04-27T04:24:51;100521.33;;;10.64;44.86
73518;BME280;61766;60.318;25.044;2023-04-27T04:27:17;100521.10;;;11.04;44.05
73518;BME280;61766;60.318;25.044;2023-04-27T04:29:42;100520.98;;;11.28;44.03
73518;BME280;61766;60.318;25.044;2023-04-27T04:32:07;100521.42;;;11.09;43.56
73518;BME280;61766;60.318;25.044;2023-04-27T04:34:32;100521.59;;;11.23;44.26
73518;BME280;61766;60.318;25.044;2023-04-27T04:36:57;100521.16;;;11.26;43.96
73518;BME280;61766;60.318;25.044;2023-04-27T04:39:22;100523.26;;;11.78;42.19
73518;BME280;61766;60.318;25.044;2023-04-27T04:41:47;100524.74;;;11.36;42.63
73518;BME280;61766;60.318;25.044;2023-04-27T04:44:12;100534.15;;;11.55;43.16
73518;BME280;61766;60.318;25.044;2023-04-27T04:46:38;100539.04;;;11.25;43.09
73518;BME280;61766;60.318;25.044;2023-04-27T04:49:03;100539.07;;;11.09;43.58
73518;BME280;61766;60.318;25.044;2023-04-27T04:51:28;100541.45;;;11.16;43.63
73518;BME280;61766;60.318;25.044;2023-04-27T04:53:53;100541.78;;;11.09;44.01
73518;BME280;61766;60.318;25.044;2023-04-27T04:56:18;100536.35;;;10.48;45.21
73518;BME280;61766;60.318;25.044;2023-04-27T04:58:43;100535.76;;;10.80;45.00
73518;BME280;61766;60.318;25.044;2023-04-27T05:01:09;100538.75;;;10.82;43.91
73518;BME280;61766;60.318;25.044;2023-04-27T05:03:33;100539.05;;;10.65;44.69
73518;BME280;61766;60.318;25.044;2023-04-27T05:05:58;100540.45;;;10.83;45.63
73518;BME280;61766;60.318;25.044;2023-04-27T05:08:23;100543.27;;;10.93;44.31
73518;BME280;61766;60.318;25.044;2023-04-27T05:10:49;100547.11;;;11.20;43.84
73518;BME280;61766;60.318;25.044;2023-04-27T05:13:14;100548.03;;;11.56;44.15
73518;BME280;61766;60.318;25.044;2023-04-27T05:15:39;100548.33;;;11.19;43.62
73518;BME280;61766;60.318;25.044;2023-04-27T05:18:04;100549.72;;;11.20;44.37
73518;BME280;61766;60.318;25.044;2023-04-27T05:20:29;100551.57;;;11.73;42.49
73518;BME280;61766;60.318;25.044;2023-04-27T05:22:54;100553.70;;;11.65;42.67
73518;BME280;61766;60.318;25.044;2023-04-27T05:25:19;100555.75;;;11.97;42.65
73518;BME280;61766;60.318;25.044;2023-04-27T05:27:44;100557.48;;;11.64;42.29
73518;BME280;61766;60.318;25.044;2023-04-27T05:30:10;100558.73;;;11.85;42.10
73518;BME280;61766;60.318;25.044;2023-04-27T05:32:34;100558.67;;;11.41;42.24
73518;BME280;61766;60.318;25.044;2023-04-27T05:34:59;100561.98;;;11.59;41.73
73518;BME280;61766;60.318;25.044;2023-04-27T05:37:24;100565.00;;;11.54;42.19
73518;BME280;61766;60.318;25.044;2023-04-27T05:39:49;100565.84;;;11.89;40.84
73518;BME280;61766;60.318;25.044;2023-04-27T05:42:14;100568.85;;;11.61;41.40
73518;BME280;61766;60.318;25.044;2023-04-27T05:44:39;100570.11;;;11.07;41.11
73518;BME280;61766;60.318;25.044;2023-04-27T05:47:05;100569.37;;;10.84;40.87
73518;BME280;61766;60.318;25.044;2023-04-27T05:49:30;100573.11;;;11.09;41.82
73518;BME280;61766;60.318;25.044;2023-04-27T05:51:56;100576.82;;;10.69;42.39
73518;BME280;61766;60.318;25.044;2023-04-27T05:54:20;100577.00;;;10.39;43.56
73518;BME280;61766;60.318;25.044;2023-04-27T05:56:46;100573.12;;;10.11;43.40
73518;BME280;61766;60.318;25.044;2023-04-27T05:59:11;100572.25;;;10.46;42.93
73518;BME280;61766;60.318;25.044;2023-04-27T06:01:36;100573.16;;;10.34;43.01
73518;BME280;61766;60.318;25.044;2023-04-27T06:04:01;100575.31;;;10.26;43.62
73518;BME280;61766;60.318;25.044;2023-04-27T06:06:26;100580.97;;;10.61;43.08
73518;BME280;61766;60.318;25.044;2023-04-27T06:08:51;100581.08;;;9.55;44.31
73518;BME280;61766;60.318;25.044;2023-04-27T06:11:16;100581.26;;;10.21;44.14
73518;BME280;61766;60.318;25.044;2023-04-27T06:13:41;100581.97;;;9.80;43.59
73518;BME280;61766;60.318;25.044;2023-04-27T06:16:07;100583.30;;;9.74;43.90
73518;BME280;61766;60.318;25.044;2023-04-27T06:18:32;100582.56;;;10.00;44.18
73518;BME280;61766;60.318;25.044;2023-04-27T06:20:58;100588.53;;;9.71;44.83
73518;BME280;61766;60.318;25.044;2023-04-27T06:23:22;100589.12;;;9.97;43.55
73518;BME280;61766;60.318;25.044;2023-04-27T06:25:48;100595.77;;;9.92;44.86
73518;BME280;61766;60.318;25.044;2023-04-27T06:28:13;100597.29;;;10.12;44.44
73518;BME280;61766;60.318;25.044;2023-04-27T06:30:38;100599.63;;;10.26;44.26
73518;BME280;61766;60.318;25.044;2023-04-27T06:33:03;100600.47;;;10.29;43.91
73518;BME280;61766;60.318;25.044;2023-04-27T06:35:28;100601.13;;;10.94;43.07
73518;BME280;61766;60.318;25.044;2023-04-27T06:37:53;100598.06;;;11.37;42.31
73518;BME280;61766;60.318;25.044;2023-04-27T06:40:18;100601.12;;;11.53;41.95
73518;BME280;61766;60.318;25.044;2023-04-27T06:42:43;100601.23;;;11.83;41.44
73518;BME280;61766;60.318;25.044;2023-04-27T06:45:09;100602.13;;;12.03;40.35
73518;BME280;61766;60.318;25.044;2023-04-27T06:47:33;100608.41;;;12.09;40.46
73518;BME280;61766;60.318;25.044;2023-04-27T06:49:58;100610.39;;;12.01;38.95
73518;BME280;61766;60.318;25.044;2023-04-27T06:52:23;100611.42;;;11.69;39.45
73518;BME280;61766;60.318;25.044;2023-04-27T06:54:48;100615.30;;;12.19;39.56
73518;BME280;61766;60.318;25.044;2023-04-27T06:57:14;100617.17;;;12.42;36.69
73518;BME280;61766;60.318;25.044;2023-04-27T06:59:40;100618.05;;;11.84;37.52
73518;BME280;61766;60.318;25.044;2023-04-27T07:02:05;100618.85;;;12.06;38.71
73518;BME280;61766;60.318;25.044;2023-04-27T07:04:29;100621.46;;;11.69;37.64
73518;BME280;61766;60.318;25.044;2023-04-27T07:06:54;100626.69;;;11.62;38.34
73518;BME280;61766;60.318;25.044;2023-04-27T07:09:19;100631.03;;;11.72;39.10
73518;BME280;61766;60.318;25.044;2023-04-27T07:11:44;100628.82;;;11.27;39.67
73518;BME280;61766;60.318;25.044;2023-04-27T07:14:09;100638.55;;;11.26;39.84
73518;BME280;61766;60.318;25.044;2023-04-27T07:16:34;100639.86;;;10.55;39.97
73518;BME280;61766;60.318;25.044;2023-04-27T07:18:59;100640.90;;;10.41;41.15
73518;BME280;61766;60.318;25.044;2023-04-27T07:21:24;100644.07;;;10.53;40.60
73518;BME280;61766;60.318;25.044;2023-04-27T07:23:49;100648.85;;;10.59;41.51
73518;BME280;61766;60.318;25.044;2023-04-27T07:26:14;100649.22;;;10.94;40.20
73518;BME280;61766;60.318;25.044;2023-04-27T07:28:39;100647.93;;;11.27;37.60
73518;BME280;61766;60.318;25.044;2023-04-27T07:31:05;100650.46;;;11.67;38.89
73518;BME280;61766;60.318;25.044;2023-04-27T07:33:29;100653.06;;;11.81;38.44
73518;BME280;61766;60.318;25.044;2023-04-27T07:35:55;100652.68;;;12.20;37.12
73518;BME280;61766;60.318;25.044;2023-04-27T07:38:20;100655.80;;;12.16;37.30
73518;BME280;61766;60.318;25.044;2023-04-27T07:40:45;100655.86;;;11.85;35.83
73518;BME280;61766;60.318;25.044;2023-04-27T07:43:10;100658.28;;;12.23;36.34
73518;BME280;61766;60.318;25.044;2023-04-27T07:45:35;100657.63;;;12.51;35.00
73518;BME280;61766;60.318;25.044;2023-04-27T07:48:00;100660.74;;;12.30;35.34
73518;BME280;61766;60.318;25.044;2023-04-27T07:50:27;100663.50;;;12.93;35.09
73518;BME280;61766;60.318;25.044;2023-04-27T07:52:51;100667.59;;;12.70;35.31
73518;BME280;61766;60.318;25.044;2023-04-27T07:55:15;100671.71;;;12.60;35.13
73518;BME280;61766;60.318;25.044;2023-04-27T07:57:40;100676.01;;;12.37;35.31
73518;BME280;61766;60.318;25.044;2023-04-27T08:00:07;100680.67;;;12.62;34.12
73518;BME280;61766;60.318;25.044;2023-04-27T08:02:30;100683.15;;;12.82;34.39
73518;BME280;61766;60.318;25.044;2023-04-27T08:04:55;100685.74;;;12.34;33.60
73518;BME280;61766;60.318;25.044;2023-04-27T08:07:20;100689.27;;;11.99;34.22
73518;BME280;61766;60.318;25.044;2023-04-27T08:09:45;100693.39;;;12.22;33.54
73518;BME280;61766;60.318;25.044;2023-04-27T08:12:10;100696.45;;;12.10;34.97
73518;BME280;61766;60.318;25.044;2023-04-27T08:14:35;100700.55;;;12.10;34.71
73518;BME280;61766;60.318;25.044;2023-04-27T08:17:00;100704.27;;;12.31;34.30
73518;BME280;61766;60.318;25.044;2023-04-27T08:19:25;100702.59;;;11.92;33.99
73518;BME280;61766;60.318;25.044;2023-04-27T08:21:50;100708.59;;;11.39;35.34
73518;BME280;61766;60.318;25.044;2023-04-27T08:24:15;100711.75;;;11.44;35.06
73518;BME280;61766;60.318;25.044;2023-04-27T08:26:41;100717.88;;;11.12;35.54
73518;BME280;61766;60.318;25.044;2023-04-27T08:29:06;100723.45;;;11.04;36.10
73518;BME280;61766;60.318;25.044;2023-04-27T08:31:31;100730.13;;;11.28;34.62
73518;BME280;61766;60.318;25.044;2023-04-27T08:33:56;100736.50;;;10.66;36.96
73518;BME280;61766;60.318;25.044;2023-04-27T08:36:21;100736.18;;;11.21;36.26
73518;BME280;61766;60.318;25.044;2023-04-27T08:38:46;100739.09;;;10.91;37.11
73518;BME280;61766;60.318;25.044;2023-04-27T08:41:18;100739.87;;;11.11;37.19
73518;BME280;61766;60.318;25.044;2023-04-27T08:43:36;100736.93;;;11.00;35.73
73518;BME280;61766;60.318;25.044;2023-04-27T08:46:02;100737.64;;;10.50;37.01
73518;BME280;61766;60.318;25.044;2023-04-27T08:48:26;100743.03;;;10.44;37.67
73518;BME280;61766;60.318;25.044;2023-04-27T08:50:51;100742.58;;;11.01;36.74
73518;BME280;61766;60.318;25.044;2023-04-27T08:53:17;100738.08;;;11.50;35.68
73518;BME280;61766;60.318;25.044;2023-04-27T08:55:41;100736.43;;;11.80;33.57
73518;BME280;61766;60.318;25.044;2023-04-27T08:58:06;100734.29;;;11.66;33.57
73518;BME280;61766;60.318;25.044;2023-04-27T09:00:37;100736.31;;;11.98;35.11
73518;BME280;61766;60.318;25.044;2023-04-27T09:02:56;100736.68;;;12.09;34.67
73518;BME280;61766;60.318;25.044;2023-04-27T09:05:22;100739.32;;;12.30;30.87
73518;BME280;61766;60.318;25.044;2023-04-27T09:07:56;100734.34;;;12.12;31.56
73518;BME280;61766;60.318;25.044;2023-04-27T09:10:12;100735.47;;;11.91;33.67
73518;BME280;61766;60.318;25.044;2023-04-27T09:12:37;100734.84;;;12.54;32.03
73518;BME280;61766;60.318;25.044;2023-04-27T09:15:03;100734.73;;;12.59;32.55
73518;BME280;61766;60.318;25.044;2023-04-27T09:17:28;100735.33;;;13.25;32.05
73518;BME280;61766;60.318;25.044;2023-04-27T09:22:17;100732.68;;;13.57;30.12
73518;BME280;61766;60.318;25.044;2023-04-27T09:24:49;100726.33;;;13.74;30.92
73518;BME280;61766;60.318;25.044;2023-04-27T09:27:08;100721.63;;;14.39;29.82
73518;BME280;61766;60.318;25.044;2023-04-27T09:29:35;100723.64;;;14.68;28.42
73518;BME280;61766;60.318;25.044;2023-04-27T09:32:00;100723.88;;;14.03;25.59
73518;BME280;61766;60.318;25.044;2023-04-27T09:34:38;100726.51;;;12.43;29.02
73518;BME280;61766;60.318;25.044;2023-04-27T09:36:52;100727.54;;;12.14;28.15
73518;BME280;61766;60.318;25.044;2023-04-27T09:39:17;100730.06;;;12.41;27.61
73518;BME280;61766;60.318;25.044;2023-04-27T09:41:42;100731.95;;;13.17;28.70
73518;BME280;61766;60.318;25.044;2023-04-27T09:44:07;100727.32;;;13.19;27.26
73518;BME280;61766;60.318;25.044;2023-04-27T09:46:33;100724.93;;;13.69;28.10
73518;BME280;61766;60.318;25.044;2023-04-27T09:49:02;100716.39;;;13.81;28.03
73518;BME280;61766;60.318;25.044;2023-04-27T09:51:24;100717.82;;;14.66;27.64
73518;BME280;61766;60.318;25.044;2023-04-27T09:53:53;100718.61;;;14.80;26.83
73518;BME280;61766;60.318;25.044;2023-04-27T09:56:26;100721.93;;;14.67;28.64
73518;BME280;61766;60.318;25.044;2023-04-27T09:58:59;100724.34;;;14.89;27.53
73518;BME280;61766;60.318;25.044;2023-04-27T10:01:15;100728.81;;;14.69;26.54
73518;BME280;61766;60.318;25.044;2023-04-27T10:03:42;100725.91;;;14.94;26.10
73518;BME280;61766;60.318;25.044;2023-04-27T10:08:25;100735.79;;;14.47;25.15
73518;BME280;61766;60.318;25.044;2023-04-27T10:10:52;100728.05;;;14.53;26.39
73518;BME280;61766;60.318;25.044;2023-04-27T10:13:21;100731.44;;;14.47;25.32
73518;BME280;61766;60.318;25.044;2023-04-27T10:15:43;100732.93;;;14.50;26.12
73518;BME280;61766;60.318;25.044;2023-04-27T10:18:09;100735.92;;;14.64;27.00
73518;BME280;61766;60.318;25.044;2023-04-27T10:20:36;100734.64;;;14.58;24.80
73518;BME280;61766;60.318;25.044;2023-04-27T10:23:00;100743.78;;;13.94;26.44
73518;BME280;61766;60.318;25.044;2023-04-27T10:25:28;100750.25;;;12.89;26.10
73518;BME280;61766;60.318;25.044;2023-04-27T10:27:53;100753.05;;;12.71;26.86
73518;BME280;61766;60.318;25.044;2023-04-27T10:30:18;100757.30;;;12.45;27.82
73518;BME280;61766;60.318;25.044;2023-04-27T10:32:50;100759.07;;;12.45;28.89
73518;BME280;61766;60.318;25.044;2023-04-27T10:35:08;100759.15;;;11.69;29.48
73518;BME280;61766;60.318;25.044;2023-04-27T10:37:37;100760.73;;;11.72;29.72
73518;BME280;61766;60.318;25.044;2023-04-27T10:40:03;100762.16;;;11.95;29.44
73518;BME280;61766;60.318;25.044;2023-04-27T10:42:25;100762.15;;;12.03;30.23
73518;BME280;61766;60.318;25.044;2023-04-27T10:44:53;100759.42;;;12.55;29.74
73518;BME280;61766;60.318;25.044;2023-04-27T10:47:13;100764.30;;;12.89;29.17
73518;BME280;61766;60.318;25.044;2023-04-27T10:49:37;100770.19;;;13.43;28.44
73518;BME280;61766;60.318;25.044;2023-04-27T10:52:03;100767.01;;;13.41;27.48
73518;BME280;61766;60.318;25.044;2023-04-27T10:54:28;100767.03;;;13.02;26.42
73518;BME280;61766;60.318;25.044;2023-04-27T10:57:04;100774.67;;;13.14;27.81
73518;BME280;61766;60.318;25.044;2023-04-27T10:59:20;100777.00;;;12.25;26.29
73518;BME280;61766;60.318;25.044;2023-04-27T11:01:48;100774.98;;;11.97;27.24
73518;BME280;61766;60.318;25.044;2023-04-27T11:04:11;100772.40;;;11.66;28.38
73518;BME280;61766;60.318;25.044;2023-04-27T11:06:41;100777.32;;;12.33;27.51
73518;BME280;61766;60.318;25.044;2023-04-27T11:09:01;100779.05;;;12.13;28.39
73518;BME280;61766;60.318;25.044;2023-04-27T11:11:26;100778.40;;;11.85;29.12
73518;BME280;61766;60.318;25.044;2023-04-27T11:13:51;100785.29;;;11.45;28.68
73518;BME280;61766;60.318;25.044;2023-04-27T11:16:16;100785.30;;;11.63;29.72
73518;BME280;61766;60.318;25.044;2023-04-27T11:18:42;100784.64;;;12.10;28.69
73518;BME280;61766;60.318;25.044;2023-04-27T11:21:10;100797.55;;;12.07;28.53
73518;BME280;61766;60.318;25.044;2023-04-27T11:23:33;100785.00;;;11.75;27.95
73518;BME280;61766;60.318;25.044;2023-04-27T11:26:07;100802.99;;;9.89;30.26
73518;BME280;61766;60.318;25.044;2023-04-27T11:28:23;100798.65;;;10.09;29.13
73518;BME280;61766;60.318;25.044;2023-04-27T11:30:54;100800.97;;;11.27;28.65
73518;BME280;61766;60.318;25.044;2023-04-27T11:33:13;100807.57;;;10.09;28.93
73518;BME280;61766;60.318;25.044;2023-04-27T11:35:38;100815.86;;;9.55;29.14
73518;BME280;61766;60.318;25.044;2023-04-27T11:38:03;100808.19;;;10.54;28.83
73518;BME280;61766;60.318;25.044;2023-04-27T11:40:28;100808.70;;;10.97;28.84
73518;BME280;61766;60.318;25.044;2023-04-27T11:42:57;100812.99;;;10.72;28.64
73518;BME280;61766;60.318;25.044;2023-04-27T11:45:18;100814.12;;;11.34;27.96
73518;BME280;61766;60.318;25.044;2023-04-27T11:47:45;100814.76;;;12.00;27.41
73518;BME280;61766;60.318;25.044;2023-04-27T11:50:09;100830.73;;;10.11;28.04
73518;BME280;61766;60.318;25.044;2023-04-27T11:52:36;100819.44;;;10.96;26.75
73518;BME280;61766;60.318;25.044;2023-04-27T11:55:01;100824.15;;;10.86;27.52
73518;BME280;61766;60.318;25.044;2023-04-27T11:57:25;100824.90;;;10.15;26.88
73518;BME280;61766;60.318;25.044;2023-04-27T11:59:51;100821.12;;;12.07;24.43
73518;BME280;61766;60.318;25.044;2023-04-27T12:02:17;100829.92;;;11.45;24.28
73518;BME280;61766;60.318;25.044;2023-04-27T12:04:43;100825.81;;;11.89;23.70
73518;BME280;61766;60.318;25.044;2023-04-27T12:07:09;100826.38;;;12.18;21.74
73518;BME280;61766;60.318;25.044;2023-04-27T12:09:34;100828.42;;;12.31;21.57
73518;BME280;61766;60.318;25.044;2023-04-27T12:12:01;100832.21;;;12.30;22.30
73518;BME280;61766;60.318;25.044;2023-04-27T12:14:26;100835.40;;;11.43;22.27
73518;BME280;61766;60.318;25.044;2023-04-27T12:16:52;100832.53;;;12.82;23.16
73518;BME280;61766;60.318;25.044;2023-04-27T12:19:18;100835.42;;;12.20;22.81
73518;BME280;61766;60.318;25.044;2023-04-27T12:21:43;100842.72;;;12.42;24.16
73518;BME280;61766;60.318;25.044;2023-04-27T12:24:09;100836.93;;;12.69;21.68
73518;BME280;61766;60.318;25.044;2023-04-27T12:26:35;100845.68;;;11.97;22.22
73518;BME280;61766;60.318;25.044;2023-04-27T12:29:01;100839.90;;;12.47;24.26
73518;BME280;61766;60.318;25.044;2023-04-27T12:31:27;100848.48;;;12.47;24.32
73518;BME280;61766;60.318;25.044;2023-04-27T12:33:53;100846.83;;;10.43;25.66